sensor_id;sensor_type;location;lat;lon;timestamp;temperature;humidity
20528;DHT22;23612;50.894;10.700;2022-12-07T00:01:37;2.30;99.90
20528;DHT22;23612;50.894;10.700;2022-12-07T00:04:09;2.30;99.90
20528;DHT22;23612;50.894;10.700;2022-12-07T00:06:43;2.30;99.90
20528;DHT22;23612;50.894;10.700;2022-12-07T00:09:16;2.30;99.90
20528;DHT22;23612;50.894;10.700;2022-12-07T00:11:43;2.30;99.90
20528;DHT22;23612;50.894;10.700;2022-12-07T00:14:13;2.30;99.90
20528;DHT22;23612;50.894;10.700;2022-12-07T00:16:39;2.20;99.90
20528;DHT22;23612;50.894;10.700;2022-12-07T00:19:05;2.20;99.90
20528;DHT22;23612;50.894;10.700;2022-12-07T00:21:33;2.20;99.90
20528;DHT22;23612;50.894;10.700;2022-12-07T00:23:59;2.30;99.90
20528;DHT22;23612;50.894;10.700;2022-12-07T00:26:31;2.30;99.90
20528;DHT22;23612;50.894;10.700;2022-12-07T00:28:59;2.30;99.90
20528;DHT22;23612;50.894;10.700;2022-12-07T00:31:27;2.30;99.90
20528;DHT22;23612;50.894;10.700;2022-12-07T00:33:53;2.30;99.90
20528;DHT22;23612;50.894;10.700;2022-12-07T00:38:54;2.30;99.90
20528;DHT22;23612;50.894;10.700;2022-12-07T00:41:22;2.20;99.90
20528;DHT22;23612;50.894;10.700;2022-12-07T00:43:50;2.20;99.90
20528;DHT22;23612;50.894;10.700;2022-12-07T00:46:16;2.10;99.90
20528;DHT22;23612;50.894;10.700;2022-12-07T00:48:42;2.10;99.90
20528;DHT22;23612;50.894;10.700;2022-12-07T00:51:10;2.10;99.90
20528;DHT22;23612;50.894;10.700;2022-12-07T00:53:36;2.00;99.90
20528;DHT22;23612;50.894;10.700;2022-12-07T00:56:09;2.00;99.90
20528;DHT22;23612;50.894;10.700;2022-12-07T00:58:36;2.00;99.90
20528;DHT22;23612;50.894;10.700;2022-12-07T01:01:03;2.00;99.90
20528;DHT22;23612;50.894;10.700;2022-12-07T01:03:29;2.00;99.90
20528;DHT22;23612;50.894;10.700;2022-12-07T01:05:55;2.00;99.90
20528;DHT22;23612;50.894;10.700;2022-12-07T01:08:22;2.00;99.90
20528;DHT22;23612;50.894;10.700;2022-12-07T01:10:48;2.00;99.90
20528;DHT22;23612;50.894;10.700;2022-12-07T01:13:14;2.10;99.90
20528;DHT22;23612;50.894;10.700;2022-12-07T01:15:44;2.10;99.90
20528;DHT22;23612;50.894;10.700;2022-12-07T01:18:10;2.20;99.90
20528;DHT22;23612;50.894;10.700;2022-12-07T01:20:36;2.20;99.90
20528;DHT22;23612;50.894;10.700;2022-12-07T01:23:03;2.20;99.90
20528;DHT22;23612;50.894;10.700;2022-12-07T01:25:29;2.20;99.90
20528;DHT22;23612;50.894;10.700;2022-12-07T01:27:54;2.20;99.90
20528;DHT22;23612;50.894;10.700;2022-12-07T01:30:20;2.20;99.90
20528;DHT22;23612;50.894;10.700;2022-12-07T01:32:45;2.20;99.90
20528;DHT22;23612;50.894;10.700;2022-12-07T01:35:11;2.20;99.90
20528;DHT22;23612;50.894;10.700;2022-12-07T01:37:37;2.20;99.90
20528;DHT22;23612;50.894;10.700;2022-12-07T01:40:05;2.20;99.90
20528;DHT22;23612;50.894;10.700;2022-12-07T01:42:31;2.20;99.90
20528;DHT22;23612;50.894;10.700;2022-12-07T01:45:33;2.30;99.90
20528;DHT22;23612;50.894;10.700;2022-12-07T01:48:01;2.30;99.90
20528;DHT22;23612;50.894;10.700;2022-12-07T01:50:28;2.30;99.90
20528;DHT22;23612;50.894;10.700;2022-12-07T01:52:57;2.30;99.90
20528;DHT22;23612;50.894;10.700;2022-12-07T01:55:23;2.40;99.90
20528;DHT22;23612;50.894;10.700;2022-12-07T01:57:51;2.30;99.90
20528;DHT22;23612;50.894;10.700;2022-12-07T02:00:18;2.30;99.90
20528;DHT22;23612;50.894;10.700;2022-12-07T02:02:51;2.30;99.90
20528;DHT22;23612;50.894;10.700;2022-12-07T02:05:18;2.30;99.90
20528;DHT22;23612;50.894;10.700;2022-12-07T02:07:46;2.30;99.90
20528;DHT22;23612;50.894;10.700;2022-12-07T02:10:15;2.20;99.90
20528;DHT22;23612;50.894;10.700;2022-12-07T02:12:40;2.20;99.90
20528;DHT22;23612;50.894;10.700;2022-12-07T02:15:07;2.20;99.90
20528;DHT22;23612;50.894;10.700;2022-12-07T02:17:46;2.10;99.90
20528;DHT22;23612;50.894;10.700;2022-12-07T02:27:59;2.20;99.90
20528;DHT22;23612;50.894;10.700;2022-12-07T02:30:32;2.30;99.90
20528;DHT22;23612;50.894;10.700;2022-12-07T02:41:33;2.40;99.90
20528;DHT22;23612;50.894;10.700;2022-12-07T02:44:07;2.40;99.90
20528;DHT22;23612;50.894;10.700;2022-12-07T02:46:41;2.40;99.90
20528;DHT22;23612;50.894;10.700;2022-12-07T02:49:07;2.40;99.90
20528;DHT22;23612;50.894;10.700;2022-12-07T02:51:38;2.40;99.90
20528;DHT22;23612;50.894;10.700;2022-12-07T02:54:12;2.40;99.90
20528;DHT22;23612;50.894;10.700;2022-12-07T02:56:52;2.50;99.90
20528;DHT22;23612;50.894;10.700;2022-12-07T02:59:35;2.50;99.90
20528;DHT22;23612;50.894;10.700;2022-12-07T03:02:19;2.50;99.90
20528;DHT22;23612;50.894;10.700;2022-12-07T03:10:40;2.60;99.90
20528;DHT22;23612;50.894;10.700;2022-12-07T03:16:21;2.60;99.90
20528;DHT22;23612;50.894;10.700;2022-12-07T03:18:58;2.60;99.90
20528;DHT22;23612;50.894;10.700;2022-12-07T03:21:33;2.50;99.90
20528;DHT22;23612;50.894;10.700;2022-12-07T03:24:04;2.60;99.90
20528;DHT22;23612;50.894;10.700;2022-12-07T03:26:36;2.60;99.90
20528;DHT22;23612;50.894;10.700;2022-12-07T03:29:15;2.60;99.90
20528;DHT22;23612;50.894;10.700;2022-12-07T03:31:46;2.60;99.90
20528;DHT22;23612;50.894;10.700;2022-12-07T03:34:18;2.60;99.90
20528;DHT22;23612;50.894;10.700;2022-12-07T03:36:49;2.60;99.90
20528;DHT22;23612;50.894;10.700;2022-12-07T03:39:29;2.60;99.90
20528;DHT22;23612;50.894;10.700;2022-12-07T03:41:57;2.60;99.90
20528;DHT22;23612;50.894;10.700;2022-12-07T03:44:24;2.70;99.90
20528;DHT22;23612;50.894;10.700;2022-12-07T03:47:03;2.80;99.90
20528;DHT22;23612;50.894;10.700;2022-12-07T03:49:41;2.80;99.90
20528;DHT22;23612;50.894;10.700;2022-12-07T03:52:26;2.90;99.90
20528;DHT22;23612;50.894;10.700;2022-12-07T03:57:28;2.90;99.90
20528;DHT22;23612;50.894;10.700;2022-12-07T03:59:55;2.90;99.90
20528;DHT22;23612;50.894;10.700;2022-12-07T04:02:22;2.90;99.90
20528;DHT22;23612;50.894;10.700;2022-12-07T04:04:48;3.00;99.90
20528;DHT22;23612;50.894;10.700;2022-12-07T04:07:14;3.00;99.90
20528;DHT22;23612;50.894;10.700;2022-12-07T04:09:40;2.90;99.90
20528;DHT22;23612;50.894;10.700;2022-12-07T04:12:05;2.90;99.90
20528;DHT22;23612;50.894;10.700;2022-12-07T04:14:31;2.90;99.90
20528;DHT22;23612;50.894;10.700;2022-12-07T04:16:57;2.90;99.90
20528;DHT22;23612;50.894;10.700;2022-12-07T04:19:26;2.90;99.90
20528;DHT22;23612;50.894;10.700;2022-12-07T04:21:51;2.90;99.90
20528;DHT22;23612;50.894;10.700;2022-12-07T04:24:17;2.90;99.90
20528;DHT22;23612;50.894;10.700;2022-12-07T04:26:45;2.90;99.90
20528;DHT22;23612;50.894;10.700;2022-12-07T04:29:11;2.90;99.90
20528;DHT22;23612;50.894;10.700;2022-12-07T04:31:37;2.90;99.90
20528;DHT22;23612;50.894;10.700;2022-12-07T04:34:03;2.90;99.90
20528;DHT22;23612;50.894;10.700;2022-12-07T04:36:29;2.90;99.90
20528;DHT22;23612;50.894;10.700;2022-12-07T04:38:55;2.90;99.90
20528;DHT22;23612;50.894;10.700;2022-12-07T04:41:22;2.90;99.90
20528;DHT22;23612;50.894;10.700;2022-12-07T04:43:58;3.00;99.90
20528;DHT22;23612;50.894;10.700;2022-12-07T04:46:24;3.10;99.90
20528;DHT22;23612;50.894;10.700;2022-12-07T04:48:51;3.00;99.90
20528;DHT22;23612;50.894;10.700;2022-12-07T04:51:20;3.00;99.90
20528;DHT22;23612;50.894;10.700;2022-12-07T04:53:46;3.10;99.90
20528;DHT22;23612;50.894;10.700;2022-12-07T04:56:13;3.00;99.90
20528;DHT22;23612;50.894;10.700;2022-12-07T04:58:38;3.00;99.90
20528;DHT22;23612;50.894;10.700;2022-12-07T05:01:04;3.00;99.90
20528;DHT22;23612;50.894;10.700;2022-12-07T05:03:29;3.00;99.90
20528;DHT22;23612;50.894;10.700;2022-12-07T05:05:55;3.00;99.90
20528;DHT22;23612;50.894;10.700;2022-12-07T05:08:20;3.00;99.90
20528;DHT22;23612;50.894;10.700;2022-12-07T05:10:48;2.90;99.90
20528;DHT22;23612;50.894;10.700;2022-12-07T05:13:14;2.90;99.90
20528;DHT22;23612;50.894;10.700;2022-12-07T05:15:39;3.00;99.90
20528;DHT22;23612;50.894;10.700;2022-12-07T05:18:05;3.00;99.90
20528;DHT22;23612;50.894;10.700;2022-12-07T05:20:31;3.00;99.90
20528;DHT22;23612;50.894;10.700;2022-12-07T05:22:57;3.00;99.90
20528;DHT22;23612;50.894;10.700;2022-12-07T05:25:23;3.00;99.90
20528;DHT22;23612;50.894;10.700;2022-12-07T05:27:49;3.00;99.90
20528;DHT22;23612;50.894;10.700;2022-12-07T05:30:15;3.00;99.90
20528;DHT22;23612;50.894;10.700;2022-12-07T05:32:41;3.00;99.90
20528;DHT22;23612;50.894;10.700;2022-12-07T05:35:06;2.90;99.90
20528;DHT22;23612;50.894;10.700;2022-12-07T05:37:32;2.90;99.90
20528;DHT22;23612;50.894;10.700;2022-12-07T05:39:58;2.90;99.90
20528;DHT22;23612;50.894;10.700;2022-12-07T05:42:23;2.90;99.90
20528;DHT22;23612;50.894;10.700;2022-12-07T05:44:49;3.00;99.90
20528;DHT22;23612;50.894;10.700;2022-12-07T05:47:15;3.00;99.90
20528;DHT22;23612;50.894;10.700;2022-12-07T05:49:41;3.00;99.90
20528;DHT22;23612;50.894;10.700;2022-12-07T05:52:07;3.00;99.90
20528;DHT22;23612;50.894;10.700;2022-12-07T05:54:33;2.90;99.90
20528;DHT22;23612;50.894;10.700;2022-12-07T05:56:59;2.90;99.90
20528;DHT22;23612;50.894;10.700;2022-12-07T05:59:24;2.80;99.90
20528;DHT22;23612;50.894;10.700;2022-12-07T06:02:02;2.90;99.90
20528;DHT22;23612;50.894;10.700;2022-12-07T06:04:33;2.90;99.90
20528;DHT22;23612;50.894;10.700;2022-12-07T06:06:59;2.90;99.90
20528;DHT22;23612;50.894;10.700;2022-12-07T06:09:26;2.90;99.90
20528;DHT22;23612;50.894;10.700;2022-12-07T06:11:53;3.00;99.90
20528;DHT22;23612;50.894;10.700;2022-12-07T06:14:38;3.00;99.90
20528;DHT22;23612;50.894;10.700;2022-12-07T06:17:04;3.00;99.90
20528;DHT22;23612;50.894;10.700;2022-12-07T06:19:30;3.00;99.90
20528;DHT22;23612;50.894;10.700;2022-12-07T06:21:55;3.00;99.90
20528;DHT22;23612;50.894;10.700;2022-12-07T06:24:21;3.00;99.90
20528;DHT22;23612;50.894;10.700;2022-12-07T06:26:46;3.00;99.90
20528;DHT22;23612;50.894;10.700;2022-12-07T06:29:12;3.00;99.90
20528;DHT22;23612;50.894;10.700;2022-12-07T06:31:38;3.10;99.90
20528;DHT22;23612;50.894;10.700;2022-12-07T06:34:06;3.10;99.90
20528;DHT22;23612;50.894;10.700;2022-12-07T06:39:07;3.20;99.90
20528;DHT22;23612;50.894;10.700;2022-12-07T06:41:37;3.20;99.90
20528;DHT22;23612;50.894;10.700;2022-12-07T06:44:04;3.20;99.90
20528;DHT22;23612;50.894;10.700;2022-12-07T06:46:30;3.20;99.90
20528;DHT22;23612;50.894;10.700;2022-12-07T06:48:56;3.20;99.90
20528;DHT22;23612;50.894;10.700;2022-12-07T06:51:21;3.10;99.90
20528;DHT22;23612;50.894;10.700;2022-12-07T06:53:47;3.10;99.90
20528;DHT22;23612;50.894;10.700;2022-12-07T06:56:12;3.10;99.90
20528;DHT22;23612;50.894;10.700;2022-12-07T06:58:38;3.10;99.90
20528;DHT22;23612;50.894;10.700;2022-12-07T07:01:18;3.00;99.90
20528;DHT22;23612;50.894;10.700;2022-12-07T07:03:44;3.00;99.90
20528;DHT22;23612;50.894;10.700;2022-12-07T07:06:10;2.90;99.90
20528;DHT22;23612;50.894;10.700;2022-12-07T07:08:36;2.90;99.90
20528;DHT22;23612;50.894;10.700;2022-12-07T07:11:02;2.90;99.90
20528;DHT22;23612;50.894;10.700;2022-12-07T07:13:28;2.90;99.90
20528;DHT22;23612;50.894;10.700;2022-12-07T07:15:54;2.90;99.90
20528;DHT22;23612;50.894;10.700;2022-12-07T07:18:20;2.90;99.90
20528;DHT22;23612;50.894;10.700;2022-12-07T07:20:45;2.90;99.90
20528;DHT22;23612;50.894;10.700;2022-12-07T07:23:11;2.90;99.90
20528;DHT22;23612;50.894;10.700;2022-12-07T07:25:37;2.90;99.90
20528;DHT22;23612;50.894;10.700;2022-12-07T07:28:02;2.90;99.90
20528;DHT22;23612;50.894;10.700;2022-12-07T07:30:28;2.90;99.90
20528;DHT22;23612;50.894;10.700;2022-12-07T07:33:01;3.00;99.90
20528;DHT22;23612;50.894;10.700;2022-12-07T07:35:28;3.10;99.90
20528;DHT22;23612;50.894;10.700;2022-12-07T07:37:54;3.10;99.90
20528;DHT22;23612;50.894;10.700;2022-12-07T07:40:20;3.10;99.90
20528;DHT22;23612;50.894;10.700;2022-12-07T07:42:49;3.10;99.90
20528;DHT22;23612;50.894;10.700;2022-12-07T07:45:15;3.20;99.90
20528;DHT22;23612;50.894;10.700;2022-12-07T07:47:41;3.20;99.90
20528;DHT22;23612;50.894;10.700;2022-12-07T07:50:07;3.20;99.90
20528;DHT22;23612;50.894;10.700;2022-12-07T07:52:32;3.20;99.90
20528;DHT22;23612;50.894;10.700;2022-12-07T07:54:58;3.20;99.90
20528;DHT22;23612;50.894;10.700;2022-12-07T07:57:24;3.20;99.90
20528;DHT22;23612;50.894;10.700;2022-12-07T07:59:49;3.30;99.90
20528;DHT22;23612;50.894;10.700;2022-12-07T08:02:17;3.40;99.90
20528;DHT22;23612;50.894;10.700;2022-12-07T08:04:44;3.40;99.90
20528;DHT22;23612;50.894;10.700;2022-12-07T08:07:10;3.40;99.90
20528;DHT22;23612;50.894;10.700;2022-12-07T08:09:36;3.50;99.90
20528;DHT22;23612;50.894;10.700;2022-12-07T08:12:01;3.60;99.90
20528;DHT22;23612;50.894;10.700;2022-12-07T08:14:27;3.60;99.90
20528;DHT22;23612;50.894;10.700;2022-12-07T08:16:54;3.60;99.90
20528;DHT22;23612;50.894;10.700;2022-12-07T08:19:19;3.70;99.90
20528;DHT22;23612;50.894;10.700;2022-12-07T08:21:45;3.70;99.90
20528;DHT22;23612;50.894;10.700;2022-12-07T08:24:10;3.70;99.90
20528;DHT22;23612;50.894;10.700;2022-12-07T08:26:36;3.80;99.90
20528;DHT22;23612;50.894;10.700;2022-12-07T08:29:02;3.90;99.90
20528;DHT22;23612;50.894;10.700;2022-12-07T08:31:27;3.90;99.90
20528;DHT22;23612;50.894;10.700;2022-12-07T08:33:54;3.80;99.90
20528;DHT22;23612;50.894;10.700;2022-12-07T08:36:19;3.90;99.90
20528;DHT22;23612;50.894;10.700;2022-12-07T08:38:46;3.80;99.90
20528;DHT22;23612;50.894;10.700;2022-12-07T08:41:12;3.80;99.90
20528;DHT22;23612;50.894;10.700;2022-12-07T08:43:38;3.80;99.90
20528;DHT22;23612;50.894;10.700;2022-12-07T08:46:13;3.70;99.90
20528;DHT22;23612;50.894;10.700;2022-12-07T08:48:50;3.80;99.90
20528;DHT22;23612;50.894;10.700;2022-12-07T08:51:16;3.80;99.90
20528;DHT22;23612;50.894;10.700;2022-12-07T08:53:42;3.90;99.90
20528;DHT22;23612;50.894;10.700;2022-12-07T08:56:09;4.00;99.90
20528;DHT22;23612;50.894;10.700;2022-12-07T08:58:35;4.20;99.90
20528;DHT22;23612;50.894;10.700;2022-12-07T09:01:01;4.40;99.90
20528;DHT22;23612;50.894;10.700;2022-12-07T09:03:27;4.60;99.90
20528;DHT22;23612;50.894;10.700;2022-12-07T09:05:53;4.80;99.90
20528;DHT22;23612;50.894;10.700;2022-12-07T09:08:20;5.30;99.90
20528;DHT22;23612;50.894;10.700;2022-12-07T09:10:46;5.70;99.90
20528;DHT22;23612;50.894;10.700;2022-12-07T09:13:13;6.10;99.90
20528;DHT22;23612;50.894;10.700;2022-12-07T09:15:38;6.20;99.90
20528;DHT22;23612;50.894;10.700;2022-12-07T09:18:04;6.10;99.90
20528;DHT22;23612;50.894;10.700;2022-12-07T09:20:29;5.90;99.90
20528;DHT22;23612;50.894;10.700;2022-12-07T09:22:55;5.60;99.90
20528;DHT22;23612;50.894;10.700;2022-12-07T09:25:21;5.40;99.90
20528;DHT22;23612;50.894;10.700;2022-12-07T09:27:46;5.20;99.90
20528;DHT22;23612;50.894;10.700;2022-12-07T09:30:12;5.20;99.90
20528;DHT22;23612;50.894;10.700;2022-12-07T09:32:38;5.10;99.90
20528;DHT22;23612;50.894;10.700;2022-12-07T09:35:03;5.10;99.90
20528;DHT22;23612;50.894;10.700;2022-12-07T09:37:29;5.00;99.90
20528;DHT22;23612;50.894;10.700;2022-12-07T09:39:56;5.00;99.90
20528;DHT22;23612;50.894;10.700;2022-12-07T09:42:29;5.10;99.90
20528;DHT22;23612;50.894;10.700;2022-12-07T09:44:55;5.00;99.90
20528;DHT22;23612;50.894;10.700;2022-12-07T09:47:21;4.90;99.90
20528;DHT22;23612;50.894;10.700;2022-12-07T09:49:47;4.80;99.90
20528;DHT22;23612;50.894;10.700;2022-12-07T09:54:42;4.70;99.90
20528;DHT22;23612;50.894;10.700;2022-12-07T09:57:11;4.60;99.90
20528;DHT22;23612;50.894;10.700;2022-12-07T09:59:38;4.50;99.90
20528;DHT22;23612;50.894;10.700;2022-12-07T10:04:47;4.70;99.90
20528;DHT22;23612;50.894;10.700;2022-12-07T10:07:12;4.80;99.90
20528;DHT22;23612;50.894;10.700;2022-12-07T10:09:38;4.80;99.90
20528;DHT22;23612;50.894;10.700;2022-12-07T10:12:09;4.80;99.90
20528;DHT22;23612;50.894;10.700;2022-12-07T10:14:39;4.90;99.90
20528;DHT22;23612;50.894;10.700;2022-12-07T10:22:58;5.00;99.90
20528;DHT22;23612;50.894;10.700;2022-12-07T10:25:33;5.10;99.90
20528;DHT22;23612;50.894;10.700;2022-12-07T10:36:01;4.80;99.90
20528;DHT22;23612;50.894;10.700;2022-12-07T10:38:44;4.50;99.90
20528;DHT22;23612;50.894;10.700;2022-12-07T10:41:10;4.50;99.90
20528;DHT22;23612;50.894;10.700;2022-12-07T10:43:36;4.50;99.90
20528;DHT22;23612;50.894;10.700;2022-12-07T10:51:46;4.90;99.90
20528;DHT22;23612;50.894;10.700;2022-12-07T10:57:19;4.80;99.90
20528;DHT22;23612;50.894;10.700;2022-12-07T11:00:33;4.90;99.90
20528;DHT22;23612;50.894;10.700;2022-12-07T11:05:53;5.10;99.90
20528;DHT22;23612;50.894;10.700;2022-12-07T11:08:39;5.20;99.90
20528;DHT22;23612;50.894;10.700;2022-12-07T11:11:14;5.10;99.90
20528;DHT22;23612;50.894;10.700;2022-12-07T11:13:55;4.90;99.90
20528;DHT22;23612;50.894;10.700;2022-12-07T11:21:52;4.70;99.90
20528;DHT22;23612;50.894;10.700;2022-12-07T11:25:24;4.80;99.90
20528;DHT22;23612;50.894;10.700;2022-12-07T11:28:00;4.90;99.90
20528;DHT22;23612;50.894;10.700;2022-12-07T11:30:40;5.20;99.90
20528;DHT22;23612;50.894;10.700;2022-12-07T11:38:51;5.60;99.90
20528;DHT22;23612;50.894;10.700;2022-12-07T11:41:22;5.50;99.90
20528;DHT22;23612;50.894;10.700;2022-12-07T11:46:15;5.20;99.90
20528;DHT22;23612;50.894;10.700;2022-12-07T11:48:47;5.20;99.90
20528;DHT22;23612;50.894;10.700;2022-12-07T11:51:16;5.30;99.90
20528;DHT22;23612;50.894;10.700;2022-12-07T11:53:59;5.40;99.90
20528;DHT22;23612;50.894;10.700;2022-12-07T11:56:28;5.50;99.90
20528;DHT22;23612;50.894;10.700;2022-12-07T11:58:58;5.50;99.90
20528;DHT22;23612;50.894;10.700;2022-12-07T12:01:51;5.50;99.90
20528;DHT22;23612;50.894;10.700;2022-12-07T12:07:06;5.30;99.90
20528;DHT22;23612;50.894;10.700;2022-12-07T12:09:52;5.20;99.90
20528;DHT22;23612;50.894;10.700;2022-12-07T12:15:20;5.20;99.90
20528;DHT22;23612;50.894;10.700;2022-12-07T12:20:55;5.10;99.90
20528;DHT22;23612;50.894;10.700;2022-12-07T12:23:47;5.00;99.90
20528;DHT22;23612;50.894;10.700;2022-12-07T12:26:22;4.90;99.90
20528;DHT22;23612;50.894;10.700;2022-12-07T12:28:58;4.80;99.90
20528;DHT22;23612;50.894;10.700;2022-12-07T12:34:01;4.70;99.90
20528;DHT22;23612;50.894;10.700;2022-12-07T12:47:38;2.90;99.90
20528;DHT22;23612;50.894;10.700;2022-12-07T12:53:25;2.30;99.90
20528;DHT22;23612;50.894;10.700;2022-12-07T12:56:11;2.20;99.90
20528;DHT22;23612;50.894;10.700;2022-12-07T12:58:41;2.10;99.90
20528;DHT22;23612;50.894;10.700;2022-12-07T13:03:54;2.30;99.90
20528;DHT22;23612;50.894;10.700;2022-12-07T13:06:34;2.70;99.90
20528;DHT22;23612;50.894;10.700;2022-12-07T13:09:01;3.00;99.90
20528;DHT22;23612;50.894;10.700;2022-12-07T13:11:41;3.20;99.90
20528;DHT22;23612;50.894;10.700;2022-12-07T13:25:27;5.20;99.90
20528;DHT22;23612;50.894;10.700;2022-12-07T13:30:45;6.00;99.90
20528;DHT22;23612;50.894;10.700;2022-12-07T13:33:12;5.80;99.90
20528;DHT22;23612;50.894;10.700;2022-12-07T13:35:40;5.70;99.90
20528;DHT22;23612;50.894;10.700;2022-12-07T13:38:22;5.40;99.90
20528;DHT22;23612;50.894;10.700;2022-12-07T13:41:14;5.00;99.90
20528;DHT22;23612;50.894;10.700;2022-12-07T13:46:11;4.40;99.90
20528;DHT22;23612;50.894;10.700;2022-12-07T13:48:47;4.30;99.90
20528;DHT22;23612;50.894;10.700;2022-12-07T13:51:36;4.10;99.90
20528;DHT22;23612;50.894;10.700;2022-12-07T13:54:10;4.10;99.90
20528;DHT22;23612;50.894;10.700;2022-12-07T13:56:36;4.00;99.90
20528;DHT22;23612;50.894;10.700;2022-12-07T13:59:02;4.10;99.90
20528;DHT22;23612;50.894;10.700;2022-12-07T14:01:30;4.10;99.90
20528;DHT22;23612;50.894;10.700;2022-12-07T14:03:56;4.20;99.90
20528;DHT22;23612;50.894;10.700;2022-12-07T14:06:48;4.20;99.90
20528;DHT22;23612;50.894;10.700;2022-12-07T14:09:23;4.30;99.90
20528;DHT22;23612;50.894;10.700;2022-12-07T14:11:50;4.50;99.90
20528;DHT22;23612;50.894;10.700;2022-12-07T14:14:30;4.50;99.90
20528;DHT22;23612;50.894;10.700;2022-12-07T14:17:02;4.60;99.90
20528;DHT22;23612;50.894;10.700;2022-12-07T14:19:47;4.60;99.90
20528;DHT22;23612;50.894;10.700;2022-12-07T14:22:27;4.60;99.90
20528;DHT22;23612;50.894;10.700;2022-12-07T14:27:32;4.60;99.90
20528;DHT22;23612;50.894;10.700;2022-12-07T14:30:00;4.50;99.90
20528;DHT22;23612;50.894;10.700;2022-12-07T14:32:28;4.40;99.90
20528;DHT22;23612;50.894;10.700;2022-12-07T14:35:03;4.30;99.90
20528;DHT22;23612;50.894;10.700;2022-12-07T14:37:33;4.20;99.90
20528;DHT22;23612;50.894;10.700;2022-12-07T14:39:58;4.20;99.90
20528;DHT22;23612;50.894;10.700;2022-12-07T14:42:27;4.20;99.90
20528;DHT22;23612;50.894;10.700;2022-12-07T14:44:54;4.20;99.90
20528;DHT22;23612;50.894;10.700;2022-12-07T14:47:19;4.10;99.90
20528;DHT22;23612;50.894;10.700;2022-12-07T14:49:45;4.00;99.90
20528;DHT22;23612;50.894;10.700;2022-12-07T14:52:17;3.90;99.90
20528;DHT22;23612;50.894;10.700;2022-12-07T14:54:43;3.80;99.90
20528;DHT22;23612;50.894;10.700;2022-12-07T14:57:10;3.90;99.90
20528;DHT22;23612;50.894;10.700;2022-12-07T14:59:36;3.90;99.90
20528;DHT22;23612;50.894;10.700;2022-12-07T15:02:02;3.90;99.90
20528;DHT22;23612;50.894;10.700;2022-12-07T15:04:28;4.10;99.90
20528;DHT22;23612;50.894;10.700;2022-12-07T15:06:58;4.10;99.90
20528;DHT22;23612;50.894;10.700;2022-12-07T15:09:24;4.10;99.90
20528;DHT22;23612;50.894;10.700;2022-12-07T15:11:50;4.20;99.90
20528;DHT22;23612;50.894;10.700;2022-12-07T15:14:15;4.10;99.90
20528;DHT22;23612;50.894;10.700;2022-12-07T15:16:42;4.20;99.90
20528;DHT22;23612;50.894;10.700;2022-12-07T15:19:16;4.10;99.90
20528;DHT22;23612;50.894;10.700;2022-12-07T15:21:42;4.00;99.90
20528;DHT22;23612;50.894;10.700;2022-12-07T15:24:11;4.00;99.90
20528;DHT22;23612;50.894;10.700;2022-12-07T15:26:38;4.00;99.90
20528;DHT22;23612;50.894;10.700;2022-12-07T15:29:04;4.00;99.90
20528;DHT22;23612;50.894;10.700;2022-12-07T15:31:30;4.00;99.90
20528;DHT22;23612;50.894;10.700;2022-12-07T15:33:55;4.00;99.90
20528;DHT22;23612;50.894;10.700;2022-12-07T15:36:23;4.00;99.90
20528;DHT22;23612;50.894;10.700;2022-12-07T15:38:49;4.00;99.90
20528;DHT22;23612;50.894;10.700;2022-12-07T15:41:15;4.00;99.90
20528;DHT22;23612;50.894;10.700;2022-12-07T15:43:41;4.00;99.90
20528;DHT22;23612;50.894;10.700;2022-12-07T15:46:36;4.10;99.90
20528;DHT22;23612;50.894;10.700;2022-12-07T15:49:03;4.10;99.90
20528;DHT22;23612;50.894;10.700;2022-12-07T15:51:29;4.10;99.90
20528;DHT22;23612;50.894;10.700;2022-12-07T15:53:54;4.20;99.90
20528;DHT22;23612;50.894;10.700;2022-12-07T15:56:20;4.20;99.90
20528;DHT22;23612;50.894;10.700;2022-12-07T15:58:46;4.20;99.90
20528;DHT22;23612;50.894;10.700;2022-12-07T16:01:13;4.20;99.90
20528;DHT22;23612;50.894;10.700;2022-12-07T16:03:38;4.20;99.90
20528;DHT22;23612;50.894;10.700;2022-12-07T16:06:05;4.20;99.90
20528;DHT22;23612;50.894;10.700;2022-12-07T16:08:30;4.30;99.90
20528;DHT22;23612;50.894;10.700;2022-12-07T16:10:56;4.30;99.90
20528;DHT22;23612;50.894;10.700;2022-12-07T16:13:21;4.30;99.90
20528;DHT22;23612;50.894;10.700;2022-12-07T16:15:47;4.30;99.90
20528;DHT22;23612;50.894;10.700;2022-12-07T16:18:12;4.30;99.90
20528;DHT22;23612;50.894;10.700;2022-12-07T16:20:38;4.40;99.90
20528;DHT22;23612;50.894;10.700;2022-12-07T16:23:04;4.40;99.90
20528;DHT22;23612;50.894;10.700;2022-12-07T16:25:29;4.40;99.90
20528;DHT22;23612;50.894;10.700;2022-12-07T16:27:55;4.40;99.90
20528;DHT22;23612;50.894;10.700;2022-12-07T16:30:20;4.40;99.90
20528;DHT22;23612;50.894;10.700;2022-12-07T16:32:46;4.40;99.90
20528;DHT22;23612;50.894;10.700;2022-12-07T16:35:12;4.30;99.90
20528;DHT22;23612;50.894;10.700;2022-12-07T16:37:38;4.20;99.90
20528;DHT22;23612;50.894;10.700;2022-12-07T16:40:04;4.20;99.90
20528;DHT22;23612;50.894;10.700;2022-12-07T16:42:34;4.20;99.90
20528;DHT22;23612;50.894;10.700;2022-12-07T16:45:01;4.20;99.90
20528;DHT22;23612;50.894;10.700;2022-12-07T16:47:26;4.20;99.90
20528;DHT22;23612;50.894;10.700;2022-12-07T16:49:52;4.20;99.90
20528;DHT22;23612;50.894;10.700;2022-12-07T16:52:18;4.20;99.90
20528;DHT22;23612;50.894;10.700;2022-12-07T16:54:44;4.10;99.90
20528;DHT22;23612;50.894;10.700;2022-12-07T16:57:10;4.00;99.90
20528;DHT22;23612;50.894;10.700;2022-12-07T16:59:36;4.00;99.90
20528;DHT22;23612;50.894;10.700;2022-12-07T17:02:01;4.10;99.90
20528;DHT22;23612;50.894;10.700;2022-12-07T17:04:27;4.20;99.90
20528;DHT22;23612;50.894;10.700;2022-12-07T17:06:53;4.20;99.90
20528;DHT22;23612;50.894;10.700;2022-12-07T17:09:19;4.30;99.90
20528;DHT22;23612;50.894;10.700;2022-12-07T17:11:44;4.30;99.90
20528;DHT22;23612;50.894;10.700;2022-12-07T17:14:10;4.40;99.90
20528;DHT22;23612;50.894;10.700;2022-12-07T17:16:55;4.40;99.90
20528;DHT22;23612;50.894;10.700;2022-12-07T17:19:20;4.40;99.90
20528;DHT22;23612;50.894;10.700;2022-12-07T17:21:46;4.40;99.90
20528;DHT22;23612;50.894;10.700;2022-12-07T17:24:14;4.20;99.90
20528;DHT22;23612;50.894;10.700;2022-12-07T17:26:41;4.10;99.90
20528;DHT22;23612;50.894;10.700;2022-12-07T17:29:07;4.00;99.90
20528;DHT22;23612;50.894;10.700;2022-12-07T17:31:34;3.90;99.90
20528;DHT22;23612;50.894;10.700;2022-12-07T17:34:00;3.80;99.90
20528;DHT22;23612;50.894;10.700;2022-12-07T17:36:28;3.70;99.90
20528;DHT22;23612;50.894;10.700;2022-12-07T17:38:54;3.60;99.90
20528;DHT22;23612;50.894;10.700;2022-12-07T17:41:20;3.50;99.90
20528;DHT22;23612;50.894;10.700;2022-12-07T17:44:07;3.40;99.90
20528;DHT22;23612;50.894;10.700;2022-12-07T17:46:33;3.40;99.90